Time,TemperatureF,DewpointF,PressureIn,WindDirection,WindDirectionDegrees,WindSpeedMPH,WindSpeedGustMPH,Humidity,HourlyPrecipIn,Conditions,Clouds,dailyrainin,SolarRadiationWatts/m^2,SoftwareType,DateUTC
2013-05-12 00:01:00,66.0,47.0,-100.00,NNW,331,7.0,12.0,50,0.00,,,0.00,0.000000,,2013-05-12 07:01:00,
2013-05-12 00:11:00,66.0,47.0,-100.00,NNW,331,7.0,12.0,50,0.00,,,0.00,0.000000,,2013-05-12 07:11:00,
2013-05-12 00:21:00,66.0,47.0,-100.00,NNW,331,7.0,12.0,50,0.00,,,0.00,0.000000,,2013-05-12 07:21:00,
2013-05-12 00:32:00,66.0,47.0,-100.00,NNW,331,7.0,12.0,50,0.00,,,0.00,0.000000,,2013-05-12 07:32:00,
2013-05-12 00:52:00,64.0,45.0,-100.00,NW,306,6.0,12.0,51,0.00,,,0.00,0.000000,,2013-05-12 07:52:00,
2013-05-12 01:02:00,64.0,45.0,-100.00,NW,306,6.0,12.0,51,0.00,,,0.00,0.000000,,2013-05-12 08:02:00,
2013-05-12 01:11:00,64.0,45.0,-100.00,NW,306,6.0,12.0,51,0.00,,,0.00,0.000000,,2013-05-12 08:11:00,
2013-05-12 01:21:00,64.0,45.0,-100.00,NW,306,6.0,12.0,51,0.00,,,0.00,0.000000,,2013-05-12 08:21:00,
2013-05-12 01:31:00,64.0,45.0,-100.00,NW,306,6.0,12.0,51,0.00,,,0.00,0.000000,,2013-05-12 08:31:00,
2013-05-12 01:53:00,63.0,47.0,-100.00,NW,306,8.0,12.0,56,0.00,,,0.00,0.000000,,2013-05-12 08:53:00,
2013-05-12 02:01:00,63.0,47.0,-100.00,NW,306,8.0,12.0,56,0.00,,,0.00,0.000000,,2013-05-12 09:01:00,
2013-05-12 02:11:00,63.0,47.0,-100.00,NW,306,8.0,12.0,56,0.00,,,0.00,0.000000,,2013-05-12 09:11:00,
2013-05-12 02:21:00,63.0,47.0,-100.00,NW,306,8.0,12.0,56,0.00,,,0.00,0.000000,,2013-05-12 09:21:00,
2013-05-12 02:32:00,63.0,47.0,-100.00,NW,306,8.0,12.0,56,0.00,,,0.00,0.000000,,2013-05-12 09:32:00,
2013-05-12 02:53:00,63.0,48.0,-100.00,West,269,7.0,11.0,57,0.00,,,0.00,0.000000,,2013-05-12 09:53:00,
2013-05-12 03:03:00,63.0,48.0,-100.00,West,269,7.0,11.0,57,0.00,,,0.00,0.000000,,2013-05-12 10:03:00,
2013-05-12 03:12:00,63.0,48.0,-100.00,West,269,7.0,11.0,57,0.00,,,0.00,0.000000,,2013-05-12 10:12:00,
2013-05-12 03:22:00,63.0,48.0,-100.00,West,269,7.0,11.0,57,0.00,,,0.00,0.000000,,2013-05-12 10:22:00,
2013-05-12 03:32:00,63.0,48.0,-100.00,West,269,7.0,11.0,57,0.00,,,0.00,0.000000,,2013-05-12 10:32:00,
2013-05-12 03:52:00,61.0,47.0,-100.00,WNW,292,7.0,11.0,60,0.00,,,0.00,0.000000,,2013-05-12 10:52:00,
2013-05-12 04:02:00,61.0,47.0,-100.00,WNW,292,7.0,11.0,60,0.00,,,0.00,0.000000,,2013-05-12 11:02:00,
2013-05-12 04:12:00,61.0,47.0,-100.00,WNW,292,7.0,11.0,60,0.00,,,0.00,0.000000,,2013-05-12 11:12:00,
2013-05-12 04:21:00,61.0,47.0,-100.00,WNW,292,7.0,11.0,60,0.00,,,0.00,0.000000,,2013-05-12 11:21:00,
2013-05-12 04:32:00,61.0,47.0,-100.00,WNW,292,7.0,11.0,60,0.00,,,0.00,0.000000,,2013-05-12 11:32:00,
2013-05-12 04:52:00,60.0,48.0,-100.00,WNW,284,8.0,12.0,64,0.00,,,0.00,0.000000,,2013-05-12 11:52:00,
2013-05-12 05:01:00,60.0,48.0,-100.00,WNW,284,8.0,12.0,64,0.00,,,0.00,0.000000,,2013-05-12 12:01:00,
2013-05-12 05:11:00,60.0,48.0,-100.00,WNW,284,8.0,12.0,64,0.00,,,0.00,0.000000,,2013-05-12 12:11:00,
2013-05-12 05:21:00,60.0,48.0,-100.00,WNW,284,8.0,12.0,64,0.00,,,0.00,0.000000,,2013-05-12 12:21:00,
2013-05-12 05:32:00,60.0,48.0,-100.00,WNW,284,8.0,12.0,64,0.00,,,0.00,0.000000,,2013-05-12 12:32:00,
2013-05-12 05:52:00,59.0,48.0,-100.00,WNW,289,7.0,11.0,67,0.00,,,-99.99,0.000000,,2013-05-12 12:52:00,
2013-05-12 06:01:00,59.0,48.0,-100.00,WNW,289,7.0,11.0,67,0.00,,,-99.99,0.000000,,2013-05-12 13:01:00,
2013-05-12 06:11:00,59.0,48.0,-100.00,WNW,289,7.0,11.0,67,0.00,,,-99.99,0.000000,,2013-05-12 13:11:00,
2013-05-12 06:21:00,59.0,48.0,-100.00,WNW,289,7.0,11.0,67,0.00,,,-99.99,0.000000,,2013-05-12 13:21:00,
2013-05-12 06:31:00,59.0,48.0,-100.00,WNW,289,7.0,11.0,67,0.00,,,-99.99,0.000000,,2013-05-12 13:31:00,
2013-05-12 06:52:00,58.0,47.0,-100.00,WNW,284,5.0,11.0,68,0.00,,,0.00,22.000000,,2013-05-12 13:52:00,
2013-05-12 07:01:00,58.0,47.0,-100.00,WNW,284,5.0,11.0,68,0.00,,,0.00,22.000000,,2013-05-12 14:01:00,
2013-05-12 07:11:00,58.0,47.0,-100.00,WNW,284,5.0,11.0,68,0.00,,,0.00,22.000000,,2013-05-12 14:11:00,
2013-05-12 07:21:00,58.0,47.0,-100.00,WNW,284,5.0,11.0,68,0.00,,,0.00,22.000000,,2013-05-12 14:21:00,
2013-05-12 07:31:00,58.0,47.0,-100.00,WNW,284,5.0,11.0,68,0.00,,,0.00,22.000000,,2013-05-12 14:31:00,
2013-05-12 07:52:00,60.0,49.0,-100.00,WNW,295,6.0,12.0,68,0.00,,,0.00,159.000000,,2013-05-12 14:52:00,
2013-05-12 08:01:00,60.0,49.0,-100.00,WNW,295,6.0,12.0,68,0.00,,,0.00,159.000000,,2013-05-12 15:01:00,
2013-05-12 08:11:00,60.0,49.0,-100.00,WNW,295,6.0,12.0,68,0.00,,,0.00,159.000000,,2013-05-12 15:11:00,
2013-05-12 08:21:00,60.0,49.0,-100.00,WNW,295,6.0,12.0,68,0.00,,,0.00,159.000000,,2013-05-12 15:21:00,
2013-05-12 08:33:00,60.0,49.0,-100.00,WNW,295,6.0,12.0,68,0.00,,,0.00,159.000000,,2013-05-12 15:33:00,
2013-05-12 08:53:00,62.0,50.0,-100.00,West,264,5.0,13.0,65,0.00,,,0.00,289.000000,,2013-05-12 15:53:00,
2013-05-12 09:02:00,62.0,50.0,-100.00,West,264,5.0,13.0,65,0.00,,,0.00,289.000000,,2013-05-12 16:02:00,
2013-05-12 09:12:00,62.0,50.0,-100.00,West,264,5.0,13.0,65,0.00,,,0.00,289.000000,,2013-05-12 16:12:00,
2013-05-12 09:23:00,62.0,50.0,-100.00,West,264,5.0,13.0,65,0.00,,,0.00,289.000000,,2013-05-12 16:23:00,
2013-05-12 09:32:00,62.0,50.0,-100.00,West,264,5.0,13.0,65,0.00,,,0.00,289.000000,,2013-05-12 16:32:00,
2013-05-12 09:52:00,65.0,50.0,-100.00,SW,215,5.0,9.0,59,0.00,,,0.00,368.000000,,2013-05-12 16:52:00,
2013-05-12 10:02:00,65.0,50.0,-100.00,SW,215,5.0,9.0,59,0.00,,,0.00,368.000000,,2013-05-12 17:02:00,
2013-05-12 10:11:00,65.0,50.0,-100.00,SW,215,5.0,9.0,59,0.00,,,0.00,368.000000,,2013-05-12 17:11:00,
2013-05-12 10:22:00,65.0,50.0,-100.00,SW,215,5.0,9.0,59,0.00,,,0.00,368.000000,,2013-05-12 17:22:00,
2013-05-12 10:32:00,65.0,50.0,-100.00,SW,215,5.0,9.0,59,0.00,,,0.00,368.000000,,2013-05-12 17:32:00,
2013-05-12 10:52:00,68.0,48.0,-100.00,SSW,192,8.0,12.0,49,0.00,,,0.00,649.000000,,2013-05-12 17:52:00,
2013-05-12 11:01:00,68.0,48.0,-100.00,SSW,192,8.0,12.0,49,0.00,,,0.00,649.000000,,2013-05-12 18:01:00,
2013-05-12 11:12:00,68.0,48.0,-100.00,SSW,192,8.0,12.0,49,0.00,,,0.00,649.000000,,2013-05-12 18:12:00,
2013-05-12 11:22:00,68.0,48.0,-100.00,SSW,192,8.0,12.0,49,0.00,,,0.00,649.000000,,2013-05-12 18:22:00,
2013-05-12 11:31:00,68.0,48.0,-100.00,SSW,192,8.0,12.0,49,0.00,,,0.00,649.000000,,2013-05-12 18:31:00,
2013-05-12 11:52:00,70.0,46.0,-100.00,SW,216,10.0,17.0,42,0.00,,,0.00,676.000000,,2013-05-12 18:52:00,
2013-05-12 12:01:00,70.0,46.0,-100.00,SW,216,10.0,17.0,42,0.00,,,0.00,676.000000,,2013-05-12 19:01:00,
2013-05-12 12:11:00,70.0,46.0,-100.00,SW,216,10.0,17.0,42,0.00,,,0.00,676.000000,,2013-05-12 19:11:00,
2013-05-12 12:21:00,70.0,46.0,-100.00,SW,216,10.0,17.0,42,0.00,,,0.00,676.000000,,2013-05-12 19:21:00,
2013-05-12 12:31:00,70.0,46.0,-100.00,SW,216,10.0,17.0,42,0.00,,,0.00,676.000000,,2013-05-12 19:31:00,
2013-05-12 12:52:00,72.0,45.0,-100.00,SW,219,8.0,20.0,38,0.00,,,0.00,749.000000,,2013-05-12 19:52:00,
2013-05-12 13:02:00,72.0,45.0,-100.00,SW,219,8.0,20.0,38,0.00,,,0.00,749.000000,,2013-05-12 20:02:00,
2013-05-12 13:11:00,72.0,45.0,-100.00,SW,219,8.0,20.0,38,0.00,,,0.00,749.000000,,2013-05-12 20:11:00,
2013-05-12 13:21:00,72.0,45.0,-100.00,SW,219,8.0,20.0,38,0.00,,,0.00,749.000000,,2013-05-12 20:21:00,
2013-05-12 13:32:00,72.0,45.0,-100.00,SW,219,8.0,20.0,38,0.00,,,0.00,749.000000,,2013-05-12 20:32:00,
2013-05-12 13:52:00,71.0,50.0,-100.00,WNW,287,7.0,16.0,48,0.00,,,0.00,626.000000,,2013-05-12 20:52:00,
2013-05-12 14:01:00,71.0,50.0,-100.00,WNW,287,7.0,16.0,48,0.00,,,0.00,626.000000,,2013-05-12 21:01:00,
2013-05-12 14:11:00,71.0,50.0,-100.00,WNW,287,7.0,16.0,48,0.00,,,0.00,626.000000,,2013-05-12 21:11:00,
2013-05-12 14:21:00,71.0,50.0,-100.00,WNW,287,7.0,16.0,48,0.00,,,0.00,626.000000,,2013-05-12 21:21:00,
2013-05-12 14:32:00,71.0,50.0,-100.00,WNW,287,7.0,16.0,48,0.00,,,0.00,626.000000,,2013-05-12 21:32:00,
2013-05-12 14:53:00,70.0,46.0,-100.00,West,267,9.0,19.0,43,0.00,,,0.00,572.000000,,2013-05-12 21:53:00,
2013-05-12 15:02:00,70.0,46.0,-100.00,West,267,9.0,19.0,43,0.00,,,0.00,572.000000,,2013-05-12 22:02:00,
2013-05-12 15:12:00,70.0,46.0,-100.00,West,267,9.0,19.0,43,0.00,,,0.00,572.000000,,2013-05-12 22:12:00,
2013-05-12 15:22:00,70.0,46.0,-100.00,West,267,9.0,19.0,43,0.00,,,0.00,572.000000,,2013-05-12 22:22:00,
2013-05-12 15:32:00,70.0,46.0,-100.00,West,267,9.0,19.0,43,0.00,,,0.00,572.000000,,2013-05-12 22:32:00,
2013-05-12 15:52:00,70.0,44.0,-100.00,West,263,8.0,20.0,39,0.00,,,0.00,458.000000,,2013-05-12 22:52:00,
2013-05-12 16:02:00,70.0,44.0,-100.00,West,263,8.0,20.0,39,0.00,,,0.00,458.000000,,2013-05-12 23:02:00,
2013-05-12 16:12:00,70.0,44.0,-100.00,West,263,8.0,20.0,39,0.00,,,0.00,458.000000,,2013-05-12 23:12:00,
2013-05-12 16:22:00,70.0,44.0,-100.00,West,263,8.0,20.0,39,0.00,,,0.00,458.000000,,2013-05-12 23:22:00,
2013-05-12 16:32:00,70.0,44.0,-100.00,West,263,8.0,20.0,39,0.00,,,0.00,458.000000,,2013-05-12 23:32:00,
2013-05-12 16:52:00,68.0,41.0,-100.00,WNW,287,11.0,20.0,37,0.00,,,0.00,315.000000,,2013-05-12 23:52:00,
2013-05-12 17:01:00,68.0,41.0,-100.00,WNW,287,11.0,20.0,37,0.00,,,0.00,315.000000,,2013-05-13 00:01:00,
2013-05-12 17:11:00,68.0,41.0,-100.00,WNW,287,11.0,20.0,37,0.00,,,0.00,315.000000,,2013-05-13 00:11:00,
2013-05-12 17:21:00,68.0,41.0,-100.00,WNW,287,11.0,20.0,37,0.00,,,0.00,315.000000,,2013-05-13 00:21:00,
2013-05-12 17:32:00,68.0,41.0,-100.00,WNW,287,11.0,20.0,37,0.00,,,0.00,315.000000,,2013-05-13 00:32:00,
2013-05-12 17:52:00,66.0,38.0,-100.00,WNW,287,13.0,22.0,36,0.00,,,0.00,178.000000,,2013-05-13 00:52:00,
2013-05-12 18:01:00,66.0,38.0,-100.00,WNW,287,13.0,22.0,36,0.00,,,0.00,178.000000,,2013-05-13 01:01:00,
2013-05-12 18:11:00,66.0,38.0,-100.00,WNW,287,13.0,22.0,36,0.00,,,0.00,178.000000,,2013-05-13 01:11:00,
2013-05-12 18:21:00,66.0,38.0,-100.00,WNW,287,13.0,22.0,36,0.00,,,0.00,178.000000,,2013-05-13 01:21:00,
2013-05-12 18:31:00,66.0,38.0,-100.00,WNW,287,13.0,22.0,36,0.00,,,0.00,178.000000,,2013-05-13 01:31:00,
2013-05-12 18:52:00,64.0,35.0,-100.00,West,275,11.0,21.0,34,0.00,,,-99.99,135.000000,,2013-05-13 01:52:00,
2013-05-12 19:01:00,64.0,35.0,-100.00,West,275,11.0,21.0,34,0.00,,,-99.99,135.000000,,2013-05-13 02:01:00,
2013-05-12 19:11:00,64.0,35.0,-100.00,West,275,11.0,21.0,34,0.00,,,-99.99,135.000000,,2013-05-13 02:11:00,
2013-05-12 19:21:00,64.0,35.0,-100.00,West,275,11.0,21.0,34,0.00,,,-99.99,135.000000,,2013-05-13 02:21:00,
2013-05-12 19:31:00,64.0,35.0,-100.00,West,275,11.0,21.0,34,0.00,,,-99.99,135.000000,,2013-05-13 02:31:00,
2013-05-12 19:52:00,64.0,38.0,-100.00,WNW,283,8.0,20.0,38,0.00,,,0.00,128.000000,,2013-05-13 02:52:00,
2013-05-12 20:01:00,64.0,38.0,-100.00,WNW,283,8.0,20.0,38,0.00,,,0.00,128.000000,,2013-05-13 03:01:00,
2013-05-12 20:11:00,64.0,38.0,-100.00,WNW,283,8.0,20.0,38,0.00,,,0.00,128.000000,,2013-05-13 03:11:00,
2013-05-12 20:21:00,64.0,38.0,-100.00,WNW,283,8.0,20.0,38,0.00,,,0.00,128.000000,,2013-05-13 03:21:00,
2013-05-12 20:32:00,64.0,38.0,-100.00,WNW,283,8.0,20.0,38,0.00,,,0.00,128.000000,,2013-05-13 03:32:00,
2013-05-12 20:53:00,60.0,41.0,-100.00,NW,314,7.0,20.0,50,0.00,,,0.00,22.000000,,2013-05-13 03:53:00,
2013-05-12 21:02:00,60.0,41.0,-100.00,NW,314,7.0,20.0,50,0.00,,,0.00,22.000000,,2013-05-13 04:02:00,
2013-05-12 21:12:00,60.0,41.0,-100.00,NW,314,7.0,20.0,50,0.00,,,0.00,22.000000,,2013-05-13 04:12:00,
2013-05-12 21:23:00,60.0,41.0,-100.00,NW,314,7.0,20.0,50,0.00,,,0.00,22.000000,,2013-05-13 04:23:00,
2013-05-12 21:32:00,60.0,41.0,-100.00,NW,314,7.0,20.0,50,0.00,,,0.00,22.000000,,2013-05-13 04:32:00,
2013-05-12 21:52:00,56.0,44.0,-100.00,West,275,8.0,16.0,63,0.00,,,0.00,0.000000,,2013-05-13 04:52:00,
2013-05-12 22:02:00,56.0,44.0,-100.00,West,275,8.0,16.0,63,0.00,,,0.00,0.000000,,2013-05-13 05:02:00,
2013-05-12 22:11:00,56.0,44.0,-100.00,West,275,8.0,16.0,63,0.00,,,0.00,0.000000,,2013-05-13 05:11:00,
2013-05-12 22:21:00,56.0,44.0,-100.00,West,275,8.0,16.0,63,0.00,,,0.00,0.000000,,2013-05-13 05:21:00,
2013-05-12 22:32:00,56.0,44.0,-100.00,West,275,8.0,16.0,63,0.00,,,0.00,0.000000,,2013-05-13 05:32:00,
2013-05-12 22:52:00,56.0,42.0,-100.00,NW,316,7.0,14.0,60,0.00,,,0.00,0.000000,,2013-05-13 05:52:00,
2013-05-12 23:01:00,56.0,42.0,-100.00,NW,316,7.0,14.0,60,0.00,,,0.00,0.000000,,2013-05-13 06:01:00,
2013-05-12 23:11:00,56.0,42.0,-100.00,NW,316,7.0,14.0,60,0.00,,,0.00,0.000000,,2013-05-13 06:11:00,
2013-05-12 23:21:00,56.0,42.0,-100.00,NW,316,7.0,14.0,60,0.00,,,0.00,0.000000,,2013-05-13 06:21:00,
2013-05-12 23:31:00,56.0,42.0,-100.00,NW,316,7.0,14.0,60,0.00,,,0.00,0.000000,,2013-05-13 06:31:00,
2013-05-12 23:52:00,55.0,42.0,-100.00,WNW,286,4.0,10.0,62,0.00,,,0.00,0.000000,,2013-05-13 06:52:00,